Terminal Aerodrome Forecast
Issued by NWS Mt. Holly, NJ

Home | Current Version | Previous Version | Text Only | Print | Product List | Glossary On
Versions: 1 2 3 4 5 6 7 8 9 10 11 12 13 14 15 16 17 18
000
FTUS41 KPHI 231741
TAFACY
TAF
KACY 231741Z 2318/2418 21015G22KT 4SM -SHRA OVC006
      TEMPO 2319/2320 28015G25KT 2SM SHRA
     FM232000 24010G20KT P6SM VCSH BKN025
     FM232100 26008KT P6SM SCT040
     FM240100 28010KT P6SM SKC=

USA.gov is the U.S. government's official web portal to all federal, state and local government web resources and services.